createdAt,value
2018-12-15T00:03:17.185Z,3.48
2018-12-15T00:07:23.250Z,2.96
2018-12-15T00:11:27.337Z,2.97
2018-12-15T00:15:47.965Z,3.20
2018-12-15T00:19:52.105Z,3.51
2018-12-15T00:23:56.214Z,3.83
2018-12-15T00:28:00.301Z,4.02
2018-12-15T00:32:04.412Z,3.53
2018-12-15T00:36:08.486Z,3.53
2018-12-15T00:40:12.712Z,3.62
2018-12-15T00:44:16.816Z,3.16
2018-12-15T00:48:20.976Z,3.17
2018-12-15T00:52:25.070Z,3.65
2018-12-15T00:56:29.157Z,4.13
2018-12-15T01:05:08.373Z,4.23
2018-12-15T01:13:49.849Z,3.98
2018-12-15T01:17:53.931Z,4.00
2018-12-15T01:21:58.025Z,4.05
2018-12-15T01:26:02.112Z,4.02
2018-12-15T01:30:06.789Z,4.08
2018-12-15T01:34:10.979Z,4.14
2018-12-15T01:38:15.129Z,4.21
2018-12-15T01:42:19.266Z,4.33
2018-12-15T01:46:23.379Z,4.39
2018-12-15T01:50:27.472Z,4.33
2018-12-15T01:54:31.609Z,4.07
2018-12-15T01:58:35.703Z,3.90
2018-12-15T02:02:39.865Z,3.99
2018-12-15T02:06:48.740Z,4.17
2018-12-15T02:10:52.843Z,4.13
2018-12-15T02:14:56.979Z,3.90
2018-12-15T02:19:01.061Z,3.28
2018-12-15T02:23:05.149Z,2.73
2018-12-15T02:27:09.238Z,3.13
2018-12-15T02:31:13.353Z,3.51
2018-12-15T02:35:17.401Z,3.57
2018-12-15T02:39:21.595Z,3.42
2018-12-15T02:43:25.760Z,3.18
2018-12-15T02:47:29.851Z,3.12
2018-12-15T02:51:33.955Z,3.25
2018-12-15T02:55:38.029Z,3.58
2018-12-15T02:59:42.165Z,3.48
2018-12-15T03:03:46.244Z,3.18
2018-12-15T03:07:50.330Z,3.25
2018-12-15T03:11:54.428Z,3.34
2018-12-15T03:15:58.593Z,3.56
2018-12-15T03:20:02.821Z,3.62
2018-12-15T03:24:06.926Z,3.51
2018-12-15T03:28:11.022Z,3.67
2018-12-15T03:32:15.241Z,3.60
2018-12-15T03:36:19.345Z,3.11
2018-12-15T03:40:23.472Z,3.17
2018-12-15T03:44:27.554Z,3.19
2018-12-15T03:48:31.706Z,3.25
2018-12-15T03:52:48.429Z,3.02
2018-12-15T03:56:52.554Z,3.13
2018-12-15T04:00:57.077Z,3.16
2018-12-15T04:05:01.173Z,3.25
2018-12-15T04:09:06.598Z,2.92
2018-12-15T04:13:11.108Z,2.86
2018-12-15T04:17:15.271Z,2.90
2018-12-15T04:21:19.427Z,3.08
2018-12-15T04:25:23.528Z,3.03
2018-12-15T04:29:27.682Z,2.73
2018-12-15T04:33:31.777Z,2.45
2018-12-15T04:37:35.931Z,2.91
2018-12-15T04:41:40.088Z,3.36
2018-12-15T04:45:44.157Z,3.16
2018-12-15T04:49:48.248Z,3.03
2018-12-15T04:53:52.348Z,3.11
2018-12-15T04:57:56.454Z,3.05
2018-12-15T05:02:00.558Z,3.19
2018-12-15T05:06:04.650Z,3.40
2018-12-15T05:14:46.721Z,3.61
2018-12-15T05:18:50.845Z,3.71
2018-12-15T05:31:50.201Z,3.29
2018-12-15T05:35:54.389Z,2.83
2018-12-15T05:44:36.494Z,3.09
2018-12-15T05:48:48.877Z,2.87
2018-12-15T05:52:52.973Z,3.14
2018-12-15T05:56:57.129Z,3.09
2018-12-15T06:05:48.844Z,2.88
2018-12-15T06:09:52.943Z,3.16
2018-12-15T06:13:57.092Z,3.52
2018-12-15T06:18:01.198Z,3.39
2018-12-15T06:26:49.283Z,3.55
2018-12-15T06:30:53.428Z,3.60
2018-12-15T06:34:57.502Z,3.44
2018-12-15T06:39:01.622Z,3.35
2018-12-15T06:47:49.448Z,3.46
2018-12-15T06:51:53.573Z,3.28
2018-12-15T06:55:57.640Z,3.46
2018-12-15T07:00:01.740Z,3.43
2018-12-15T07:08:48.613Z,3.64
2018-12-15T07:12:52.768Z,3.44
2018-12-15T07:16:56.847Z,3.60
2018-12-15T07:21:06.421Z,2.90
2018-12-15T07:29:49.467Z,3.45
2018-12-15T07:33:53.577Z,3.63
2018-12-15T07:37:57.671Z,3.78
2018-12-15T07:42:01.772Z,3.81
2018-12-15T07:50:48.642Z,3.24
2018-12-15T07:54:52.745Z,3.63
2018-12-15T07:58:56.853Z,3.91
2018-12-15T08:03:00.922Z,3.90
2018-12-15T08:11:54.329Z,3.94
2018-12-15T08:15:58.436Z,4.06
2018-12-15T08:20:02.874Z,4.07
2018-12-15T08:28:47.804Z,4.01
2018-12-15T08:32:51.872Z,3.88
2018-12-15T08:36:55.974Z,4.15
2018-12-15T08:41:00.057Z,4.08
2018-12-15T08:45:04.691Z,4.03
2018-12-15T08:53:47.712Z,3.89
2018-12-15T08:57:51.806Z,3.71
2018-12-15T09:01:56.054Z,3.98
2018-12-15T09:06:00.128Z,3.15
2018-12-15T09:10:04.409Z,2.34
2018-12-15T09:18:49.278Z,3.21
2018-12-15T09:22:53.365Z,3.47
2018-12-15T09:40:48.762Z,3.74
2018-12-15T10:12:05.713Z,3.72
2018-12-15T10:16:09.815Z,3.70
2018-12-15T10:20:13.931Z,4.03
2018-12-15T10:24:18.039Z,3.75
2018-12-15T10:28:22.203Z,3.18
2018-12-15T10:32:31.813Z,3.21
2018-12-15T10:36:35.912Z,2.83
2018-12-15T10:40:40.014Z,2.81
2018-12-15T10:44:44.109Z,2.57
2018-12-15T10:48:48.190Z,2.94
2018-12-15T10:52:52.283Z,3.56
2018-12-15T10:56:56.410Z,4.04
2018-12-15T11:05:26.121Z,3.53
2018-12-15T11:09:30.217Z,3.54
2018-12-15T11:13:34.290Z,3.42
2018-12-15T11:17:38.413Z,3.90
2018-12-15T11:21:42.520Z,4.21
2018-12-15T11:25:46.693Z,4.28
2018-12-15T11:29:50.774Z,4.28
2018-12-15T11:33:54.900Z,4.33
2018-12-15T11:37:58.991Z,4.41
2018-12-15T11:42:03.165Z,4.38
2018-12-15T11:46:07.260Z,4.17
2018-12-15T11:50:11.405Z,4.06
2018-12-15T11:54:15.523Z,4.03
2018-12-15T11:58:19.588Z,3.79
2018-12-15T12:02:23.681Z,3.75
2018-12-15T12:06:27.764Z,4.17
2018-12-15T12:10:31.853Z,3.97
2018-12-15T12:14:35.945Z,3.63
2018-12-15T12:18:40.045Z,3.51
2018-12-15T12:22:44.228Z,3.28
2018-12-15T12:26:48.314Z,3.23
2018-12-15T12:30:52.490Z,3.38
2018-12-15T12:34:56.557Z,3.53
2018-12-15T12:39:00.635Z,4.00
2018-12-15T12:43:04.802Z,4.20
2018-12-15T12:47:08.905Z,4.09
2018-12-15T12:51:13.022Z,4.19
2018-12-15T12:55:17.181Z,3.98
2018-12-15T12:59:21.279Z,3.75
2018-12-15T13:03:25.406Z,3.64
2018-12-15T13:07:29.498Z,3.73
2018-12-15T13:11:33.588Z,4.05
2018-12-15T13:15:37.813Z,4.30
2018-12-15T13:19:41.995Z,4.35
2018-12-15T13:23:46.391Z,4.42
2018-12-15T13:27:50.493Z,4.19
2018-12-15T13:31:54.572Z,4.46
2018-12-15T13:35:58.812Z,4.74
2018-12-15T13:40:05.058Z,4.66
2018-12-15T13:44:09.152Z,4.64
2018-12-15T13:48:13.345Z,4.66
2018-12-15T13:56:49.894Z,4.17
2018-12-15T14:05:32.054Z,3.95
2018-12-15T14:09:47.822Z,3.88
2018-12-15T14:13:51.959Z,3.82
2018-12-15T14:17:56.057Z,4.18
2018-12-15T14:26:20.541Z,4.50
2018-12-15T14:30:30.180Z,4.59
2018-12-15T14:34:47.912Z,4.73
2018-12-15T14:38:52.030Z,4.59
2018-12-15T14:42:56.121Z,4.19
2018-12-15T14:47:00.223Z,4.42
2018-12-15T14:51:04.344Z,4.42
2018-12-15T14:59:48.346Z,3.41
2018-12-15T15:03:52.454Z,3.91
2018-12-15T15:07:56.561Z,4.15
2018-12-15T15:12:00.648Z,3.36
2018-12-15T15:16:04.737Z,3.85
2018-12-15T15:20:09.941Z,4.00
2018-12-15T15:24:14.009Z,4.12
2018-12-15T15:28:47.318Z,3.66
2018-12-15T15:32:51.422Z,3.23
2018-12-15T15:36:55.509Z,2.96
2018-12-15T15:40:59.661Z,3.10
2018-12-15T15:45:04.227Z,3.54
2018-12-15T15:49:08.322Z,3.77
2018-12-15T15:53:12.454Z,4.12
2018-12-15T15:57:16.538Z,4.21
2018-12-15T16:01:47.752Z,4.28
2018-12-15T16:05:51.847Z,3.88
2018-12-15T16:09:55.998Z,3.88
2018-12-15T16:14:00.101Z,3.94
2018-12-15T16:18:04.408Z,4.13
2018-12-15T16:22:08.569Z,4.24
2018-12-15T16:26:12.661Z,4.39
2018-12-15T16:30:16.815Z,4.43
2018-12-15T16:34:47.048Z,4.49
2018-12-15T16:38:51.199Z,4.43
2018-12-15T16:42:55.291Z,4.44
2018-12-15T16:46:59.450Z,3.83
2018-12-15T16:51:03.628Z,3.71
2018-12-15T16:55:08.265Z,3.86
2018-12-15T16:59:12.342Z,3.83
2018-12-15T17:03:16.913Z,3.87
2018-12-15T17:07:21.006Z,2.81
2018-12-15T17:11:48.464Z,2.75
2018-12-15T17:15:52.567Z,2.59
2018-12-15T17:19:56.697Z,2.78
2018-12-15T17:24:00.795Z,2.49
2018-12-15T17:28:04.945Z,1.80
2018-12-15T17:32:09.034Z,2.24
2018-12-15T17:36:13.101Z,2.72
2018-12-15T17:44:49.258Z,3.29
2018-12-15T17:48:53.345Z,3.17
2018-12-15T17:52:57.442Z,2.77
2018-12-15T18:11:07.403Z,2.36
2018-12-15T18:15:11.562Z,1.97
2018-12-15T18:19:15.756Z,2.05
2018-12-15T18:23:19.841Z,1.79
2018-12-15T18:27:23.909Z,1.63
2018-12-15T18:31:29.002Z,1.94
2018-12-15T18:35:33.094Z,2.27
2018-12-15T18:39:37.250Z,1.90
2018-12-15T18:43:41.349Z,2.09
2018-12-15T18:47:46.534Z,2.32
2018-12-15T18:51:50.613Z,2.67
2018-12-15T18:55:54.714Z,3.05
2018-12-15T18:59:58.800Z,3.14
2018-12-15T19:04:02.925Z,3.10
2018-12-15T19:08:07.048Z,2.56
2018-12-15T19:12:11.141Z,2.45
2018-12-15T19:16:15.213Z,2.44
2018-12-15T19:20:20.377Z,2.74
2018-12-15T19:24:24.477Z,3.07
2018-12-15T19:28:28.609Z,2.73
2018-12-15T19:32:32.698Z,2.49
2018-12-15T19:36:36.757Z,2.59
2018-12-15T19:40:40.901Z,2.24
2018-12-15T19:44:46.078Z,2.19
2018-12-15T19:48:50.175Z,2.04
2018-12-15T19:52:54.268Z,1.97
2018-12-15T19:56:58.382Z,2.25
2018-12-15T20:01:02.464Z,1.90
2018-12-15T20:05:06.669Z,2.22
2018-12-15T20:09:10.969Z,2.54
2018-12-15T20:13:15.096Z,2.71
2018-12-15T20:17:19.182Z,2.60
2018-12-15T20:21:23.293Z,2.31
2018-12-15T20:25:27.413Z,2.15
2018-12-15T20:29:31.488Z,2.21
2018-12-15T20:33:35.691Z,2.39
2018-12-15T20:37:39.770Z,2.62
2018-12-15T20:41:43.854Z,2.81
2018-12-15T20:45:47.945Z,2.85
2018-12-15T20:49:52.041Z,2.84
2018-12-15T20:53:56.129Z,2.79
2018-12-15T20:58:00.220Z,2.35
2018-12-15T21:02:04.528Z,2.45
2018-12-15T21:06:08.625Z,2.41
2018-12-15T21:10:12.924Z,2.41
2018-12-15T21:14:17.036Z,2.61
2018-12-15T21:18:21.120Z,2.57
2018-12-15T21:22:25.250Z,2.46
2018-12-15T21:26:29.425Z,2.46
2018-12-15T21:30:33.577Z,2.23
2018-12-15T21:34:37.667Z,2.56
2018-12-15T21:38:41.767Z,2.83
2018-12-15T21:42:45.903Z,2.95
2018-12-15T21:46:50.016Z,2.96
2018-12-15T21:50:54.097Z,2.43
2018-12-15T21:54:58.175Z,2.49
2018-12-15T21:59:02.378Z,2.22
2018-12-15T22:03:06.529Z,1.96
2018-12-15T22:07:10.727Z,1.77
2018-12-15T22:11:14.869Z,2.12
2018-12-15T22:15:46.958Z,2.43
2018-12-15T22:19:51.088Z,1.59
2018-12-15T22:28:48.854Z,2.11
2018-12-15T22:37:48.494Z,2.08
2018-12-15T22:41:53.661Z,2.03
2018-12-15T22:50:48.432Z,2.11
2018-12-15T23:03:50.149Z,2.18
2018-12-15T23:07:59.880Z,2.12
2018-12-15T23:16:48.758Z,2.10
2018-12-15T23:20:52.893Z,2.43
2018-12-15T23:29:48.473Z,2.85
2018-12-15T23:33:52.629Z,2.73
2018-12-15T23:37:56.719Z,2.32
2018-12-15T23:42:00.854Z,2.03
2018-12-15T23:50:48.750Z,2.42
2018-12-15T23:54:53.831Z,2.22
2018-12-15T23:58:57.978Z,2.34
